Terminal Aerodrome Forecast
Issued by NWS Grand Forks, ND

Home | Current Version | Previous Version | Graphics & Text | Print | Product List | Glossary On
Versions: 1 2 3 4 5 6 7 8 9 10 11 12 13 14 15 16 17 18 19
269
FTUS43 KFGF 041131
TAFGFK
TAF
KGFK 041131Z 0412/0512 33009KT P6SM OVC040
      TEMPO 0412/0413 BKN013
     FM041300 32007KT P6SM OVC024
     FM042000 29007KT P6SM BKN060
     FM050000 18006KT P6SM BKN120=

USA.gov is the U.S. government's official web portal to all federal, state and local government web resources and services.